createdAt,value
2017-08-31T00:04:44.972Z,84.30
2017-08-31T00:09:48.203Z,83.90
2017-08-31T00:14:51.408Z,84.60
2017-08-31T00:19:54.585Z,84.70
2017-08-31T00:24:57.787Z,84.50
2017-08-31T00:30:00.976Z,85.20
2017-08-31T00:35:04.175Z,85.30
2017-08-31T00:40:07.360Z,84.90
2017-08-31T00:45:10.607Z,85.10
2017-08-31T00:50:13.821Z,85.00
2017-08-31T00:55:16.992Z,85.00
2017-08-31T01:00:20.201Z,85.10
2017-08-31T01:05:23.412Z,84.60
2017-08-31T01:10:26.609Z,84.90
2017-08-31T01:15:29.766Z,84.80
2017-08-31T01:20:32.944Z,84.50
2017-08-31T01:25:36.401Z,84.30
2017-08-31T01:30:39.599Z,84.50
2017-08-31T01:35:42.795Z,84.40
2017-08-31T01:40:45.985Z,84.20
2017-08-31T01:45:49.159Z,83.80
2017-08-31T01:50:52.375Z,83.50
2017-08-31T01:55:55.575Z,83.40
2017-08-31T02:00:58.827Z,84.00
2017-08-31T02:06:02.011Z,84.30
2017-08-31T02:11:05.234Z,83.70
2017-08-31T02:16:08.576Z,83.50
2017-08-31T02:21:11.782Z,83.50
2017-08-31T02:26:14.955Z,83.80
2017-08-31T02:31:18.160Z,83.80
2017-08-31T02:36:21.347Z,83.30
2017-08-31T02:41:24.523Z,83.40
2017-08-31T02:46:27.732Z,83.50
2017-08-31T02:51:30.937Z,84.10
2017-08-31T02:56:34.170Z,84.30
2017-08-31T03:01:37.376Z,85.00
2017-08-31T03:06:40.562Z,85.30
2017-08-31T03:11:43.826Z,85.30
2017-08-31T03:16:47.031Z,85.80
2017-08-31T03:21:50.249Z,86.20
2017-08-31T03:26:53.448Z,86.10
2017-08-31T03:31:56.663Z,86.20
2017-08-31T03:36:59.845Z,87.60
2017-08-31T03:42:03.038Z,88.70
2017-08-31T03:47:06.275Z,89.40
2017-08-31T03:52:09.535Z,91.20
2017-08-31T03:57:12.740Z,91.20
2017-08-31T04:02:16.001Z,92.10
2017-08-31T04:07:19.209Z,93.00
2017-08-31T04:12:22.421Z,92.80
2017-08-31T04:17:25.620Z,94.10
2017-08-31T04:22:28.884Z,94.10
2017-08-31T04:27:32.078Z,95.00
2017-08-31T04:32:35.287Z,94.80
2017-08-31T04:37:38.515Z,95.00
2017-08-31T04:42:41.729Z,96.00
2017-08-31T04:47:44.923Z,95.90
2017-08-31T04:52:48.134Z,95.70
2017-08-31T04:57:51.352Z,96.50
2017-08-31T05:02:54.552Z,96.00
2017-08-31T05:07:57.757Z,95.70
2017-08-31T05:13:00.959Z,96.50
2017-08-31T05:18:04.151Z,97.20
2017-08-31T05:23:07.352Z,98.10
2017-08-31T05:28:10.762Z,99.90
2017-08-31T05:33:13.984Z,99.90
2017-08-31T05:38:17.240Z,99.90
2017-08-31T05:43:20.413Z,99.90
2017-08-31T05:48:23.606Z,99.90
2017-08-31T05:53:26.842Z,99.90
2017-08-31T05:58:30.029Z,99.90
2017-08-31T06:03:33.219Z,99.90
2017-08-31T06:08:36.416Z,99.90
2017-08-31T06:13:39.610Z,99.90
2017-08-31T06:18:42.797Z,99.90
2017-08-31T06:23:45.997Z,99.90
2017-08-31T06:28:49.290Z,99.90
2017-08-31T06:33:52.500Z,99.90
2017-08-31T06:38:55.706Z,99.00
2017-08-31T06:43:58.910Z,98.60
2017-08-31T06:49:02.109Z,98.90
2017-08-31T06:54:05.306Z,99.30
2017-08-31T06:59:08.568Z,99.70
2017-08-31T07:04:11.764Z,99.10
2017-08-31T07:09:14.971Z,98.30
2017-08-31T07:14:18.184Z,97.40
2017-08-31T07:19:21.386Z,97.30
2017-08-31T07:24:24.608Z,97.80
2017-08-31T07:29:27.887Z,97.30
2017-08-31T07:34:31.106Z,98.00
2017-08-31T07:39:34.314Z,97.10
2017-08-31T07:44:37.526Z,96.30
2017-08-31T07:49:40.740Z,94.40
2017-08-31T07:54:44.025Z,90.00
2017-08-31T07:59:47.232Z,89.30
2017-08-31T08:04:50.511Z,90.10
2017-08-31T08:09:53.734Z,89.20
2017-08-31T08:14:56.989Z,99.50
2017-08-31T08:20:00.174Z,98.00
2017-08-31T08:25:03.314Z,97.50
2017-08-31T08:30:06.491Z,93.20
2017-08-31T08:35:09.664Z,91.50
2017-08-31T08:40:12.859Z,86.70
2017-08-31T08:45:16.026Z,84.60
2017-08-31T08:50:19.229Z,86.30
2017-08-31T09:00:31.901Z,82.60
2017-08-31T09:05:35.097Z,86.30
2017-08-31T09:10:38.334Z,82.40
2017-08-31T09:15:41.552Z,80.40
2017-08-31T09:20:44.745Z,78.50
2017-08-31T09:25:47.938Z,78.60
2017-08-31T09:30:51.177Z,76.80
2017-08-31T09:35:54.391Z,75.70
2017-08-31T09:40:57.598Z,77.10
2017-08-31T09:46:00.869Z,75.10
2017-08-31T09:51:04.080Z,73.70
2017-08-31T09:56:07.251Z,74.10
2017-08-31T10:01:10.461Z,74.50
2017-08-31T10:06:13.674Z,72.60
2017-08-31T10:11:16.884Z,68.90
2017-08-31T10:16:20.145Z,71.60
2017-08-31T10:21:23.319Z,71.40
2017-08-31T10:26:26.504Z,68.40
2017-08-31T10:31:29.732Z,66.60
2017-08-31T10:36:32.941Z,64.60
2017-08-31T10:41:36.155Z,67.50
2017-08-31T10:46:39.367Z,66.60
2017-08-31T10:51:42.571Z,66.80
2017-08-31T10:56:45.767Z,64.70
2017-08-31T11:01:48.977Z,62.00
2017-08-31T11:06:53.102Z,65.20
2017-08-31T11:11:56.296Z,65.70
2017-08-31T11:16:59.478Z,64.70
2017-08-31T11:22:02.698Z,66.90
2017-08-31T11:27:05.914Z,67.80
2017-08-31T11:32:09.211Z,65.30
2017-08-31T11:37:12.358Z,65.60
2017-08-31T11:42:15.594Z,67.70
2017-08-31T11:47:18.809Z,69.40
2017-08-31T11:52:21.990Z,69.00
2017-08-31T11:57:25.197Z,66.20
2017-08-31T12:02:28.409Z,63.40
2017-08-31T12:07:31.626Z,64.40
2017-08-31T12:12:34.845Z,63.20
2017-08-31T12:17:38.045Z,64.40
2017-08-31T12:22:41.267Z,67.70
2017-08-31T12:27:44.464Z,68.80
2017-08-31T12:32:47.665Z,69.80
2017-08-31T12:37:50.884Z,64.90
2017-08-31T12:42:54.081Z,64.40
2017-08-31T12:47:57.237Z,62.40
2017-08-31T12:53:00.483Z,62.50
2017-08-31T12:58:03.702Z,60.90
2017-08-31T13:03:06.909Z,61.50
2017-08-31T13:08:10.125Z,60.60
2017-08-31T13:13:13.333Z,61.30
2017-08-31T13:18:16.534Z,59.30
2017-08-31T13:23:19.747Z,59.80
2017-08-31T13:28:22.952Z,62.10
2017-08-31T13:33:26.155Z,59.30
2017-08-31T13:38:29.371Z,60.00
2017-08-31T13:43:32.584Z,60.80
2017-08-31T13:48:35.885Z,60.80
2017-08-31T13:53:39.046Z,61.60
2017-08-31T13:58:42.277Z,61.80
2017-08-31T14:03:45.487Z,61.00
2017-08-31T14:08:48.672Z,61.40
2017-08-31T14:13:51.928Z,59.90
2017-08-31T14:18:55.284Z,60.50
2017-08-31T14:23:58.490Z,61.30
2017-08-31T14:29:01.725Z,61.70
2017-08-31T14:34:04.940Z,62.40
2017-08-31T14:39:08.160Z,63.40
2017-08-31T14:44:11.386Z,63.60
2017-08-31T14:49:14.597Z,61.50
2017-08-31T14:54:17.805Z,63.20
2017-08-31T14:59:21.018Z,63.30
2017-08-31T15:04:24.217Z,64.40
2017-08-31T15:09:27.602Z,62.60
2017-08-31T15:14:30.799Z,63.20
2017-08-31T15:19:33.994Z,62.70
2017-08-31T15:24:37.227Z,64.20
2017-08-31T15:29:42.224Z,61.50
2017-08-31T15:34:48.017Z,61.80
2017-08-31T15:39:51.250Z,64.60
2017-08-31T15:44:54.457Z,65.10
2017-08-31T15:49:57.753Z,67.20
2017-08-31T15:55:00.992Z,68.10
2017-08-31T16:00:04.214Z,69.10
2017-08-31T16:05:07.420Z,69.30
2017-08-31T16:10:10.619Z,69.30
2017-08-31T16:15:13.849Z,70.30
2017-08-31T16:20:17.087Z,71.10
2017-08-31T16:25:20.294Z,71.40
2017-08-31T16:30:23.545Z,72.50
2017-08-31T16:35:26.768Z,71.30
2017-08-31T16:40:30.006Z,71.10
2017-08-31T16:45:33.237Z,70.30
2017-08-31T16:50:36.466Z,69.40
2017-08-31T16:55:39.702Z,66.20
2017-08-31T17:00:43.003Z,63.90
2017-08-31T17:05:46.212Z,63.40
2017-08-31T17:10:49.444Z,63.60
2017-08-31T17:15:52.642Z,62.60
2017-08-31T17:20:55.867Z,62.60
2017-08-31T17:25:59.061Z,64.20
2017-08-31T17:31:02.271Z,62.50
2017-08-31T17:36:05.490Z,65.30
2017-08-31T17:41:08.710Z,65.70
2017-08-31T17:46:12.017Z,64.80
2017-08-31T17:51:15.266Z,65.90
2017-08-31T17:56:18.480Z,66.90
2017-08-31T18:01:21.704Z,65.40
2017-08-31T18:06:24.963Z,66.50
2017-08-31T18:11:28.231Z,66.50
2017-08-31T18:16:31.500Z,67.80
2017-08-31T18:21:34.729Z,68.80
2017-08-31T18:26:37.951Z,67.90
2017-08-31T18:31:41.196Z,69.90
2017-08-31T18:36:44.407Z,69.50
2017-08-31T18:41:47.685Z,71.60
2017-08-31T18:46:50.917Z,73.60
2017-08-31T18:51:54.175Z,76.50
2017-08-31T18:56:57.411Z,81.00
2017-08-31T19:02:00.646Z,81.90
2017-08-31T19:07:03.843Z,80.80
2017-08-31T19:12:07.050Z,78.30
2017-08-31T19:17:10.309Z,77.70
2017-08-31T19:22:13.518Z,76.20
2017-08-31T19:27:16.689Z,77.70
2017-08-31T19:32:19.910Z,79.10
2017-08-31T19:37:23.400Z,78.40
2017-08-31T19:42:26.609Z,79.40
2017-08-31T19:47:29.985Z,81.00
2017-08-31T19:52:33.241Z,82.30
2017-08-31T19:57:36.474Z,80.30
2017-08-31T20:02:39.684Z,83.00
2017-08-31T20:07:42.960Z,82.60
2017-08-31T20:12:46.192Z,83.10
2017-08-31T20:17:49.400Z,82.30
2017-08-31T20:22:52.644Z,82.80
2017-08-31T20:27:55.895Z,83.30
2017-08-31T20:32:59.092Z,82.70
2017-08-31T20:38:02.368Z,84.80
2017-08-31T20:43:05.574Z,84.90
2017-08-31T20:48:08.789Z,90.20
2017-08-31T20:53:12.100Z,89.90
2017-08-31T20:58:15.350Z,87.50
2017-08-31T21:03:18.524Z,88.20
2017-08-31T21:08:21.777Z,85.70
2017-08-31T21:13:24.994Z,83.70
2017-08-31T21:18:28.255Z,82.70
2017-08-31T21:23:31.464Z,83.20
2017-08-31T21:28:34.675Z,85.40
2017-08-31T21:33:37.850Z,88.90
2017-08-31T21:38:41.032Z,90.30
2017-08-31T21:43:44.203Z,90.80
2017-08-31T21:48:47.545Z,91.00
2017-08-31T21:53:50.743Z,90.90
2017-08-31T21:58:53.924Z,89.30
2017-08-31T22:03:57.132Z,89.90
2017-08-31T22:09:00.328Z,88.80
2017-08-31T22:14:03.572Z,88.70
2017-08-31T22:19:06.805Z,88.30
2017-08-31T22:24:10.004Z,87.40
2017-08-31T22:29:13.201Z,88.40
2017-08-31T22:34:16.427Z,88.70
2017-08-31T22:39:19.620Z,89.70
2017-08-31T22:44:22.869Z,90.80
2017-08-31T22:49:26.084Z,91.10
2017-08-31T22:54:29.310Z,91.20
2017-08-31T22:59:32.550Z,90.30
2017-08-31T23:04:35.716Z,90.10
2017-08-31T23:09:38.883Z,89.60
2017-08-31T23:14:42.039Z,89.00
2017-08-31T23:19:45.261Z,89.60
2017-08-31T23:24:48.436Z,89.30
2017-08-31T23:29:51.628Z,88.90
2017-08-31T23:34:54.774Z,89.40
2017-08-31T23:39:57.946Z,89.30
2017-08-31T23:45:01.112Z,90.20
2017-08-31T23:50:04.341Z,90.60
2017-08-31T23:55:07.654Z,92.50
